Time;durP1;ratioP1;P1;durP2;ratioP2;P2;SDS_P1;SDS_P2;PMS_P1;PMS_P2;Temp;Humidity;BMP_temperature;BMP_pressure;BME280_temperature;BME280_humidity;BME280_pressure;Samples;Min_cycle;Max_cycle;Signal;HPM_P1;HPM_P2
2021/10/16 00:01:59;;;;;;;10.23;2.87;;;;;;;;;;10427164;28;20113;-92
2021/10/16 00:07:00;;;;;;;3.67;2.40;;;;;;;;;;10427004;28;20717;-93
2021/10/16 00:12:00;;;;;;;5.60;2.13;;;;;;;;;;10414646;28;20061;-92
2021/10/16 00:17:01;;;;;;;6.00;2.63;;;;;;;;;;10414008;28;20033;-86
2021/10/16 00:22:01;;;;;;;9.38;2.50;;;;;;;;;;10423819;28;20026;-86
2021/10/16 00:27:02;;;;;;;6.35;2.33;;;;;;;;;;10400863;28;20025;-86
2021/10/16 00:32:02;;;;;;;8.63;2.60;;;;;;;;;;10422857;28;20353;-87
2021/10/16 00:37:03;;;;;;;4.18;2.40;;;;;;;;;;10425242;28;20087;-85
2021/10/16 00:42:05;;;;;;;5.72;2.80;;;;;;;;;;10424984;28;20026;-90
2021/10/16 00:47:05;;;;;;;6.40;2.25;;;;;;;;;;10424395;28;20051;-88
2021/10/16 00:52:07;;;;;;;3.70;2.27;;;;;;;;;;10423803;28;20037;-86
2021/10/16 00:57:08;;;;;;;5.65;2.40;;;;;;;;;;10424598;28;20040;-85
2021/10/16 01:02:28;;;;;;;6.32;2.53;;;;;;;;;;10423682;28;20475;-86
2021/10/16 01:07:29;;;;;;;5.05;2.55;;;;;;;;;;10297178;28;20413;-89
2021/10/16 01:12:30;;;;;;;5.80;2.63;;;;;;;;;;10280464;28;20147;-88
2021/10/16 01:17:32;;;;;;;2.78;2.05;;;;;;;;;;10287323;28;20061;-86
2021/10/16 01:22:33;;;;;;;7.18;2.33;;;;;;;;;;10296029;28;20070;-87
2021/10/16 01:27:34;;;;;;;6.38;2.40;;;;;;;;;;10296487;28;20417;-87
2021/10/16 01:32:35;;;;;;;5.90;2.60;;;;;;;;;;10297108;28;20042;-90
2021/10/16 01:37:39;;;;;;;4.75;2.50;;;;;;;;;;10297214;28;20118;-90
2021/10/16 01:42:43;;;;;;;2.33;2.08;;;;;;;;;;10344277;28;20186;-87
2021/10/16 01:47:48;;;;;;;3.60;2.20;;;;;;;;;;10408346;28;20460;-89
2021/10/16 01:52:48;;;;;;;2.88;2.33;;;;;;;;;;10407513;28;20053;-87
2021/10/16 01:57:49;;;;;;;3.53;2.00;;;;;;;;;;10420471;28;20031;-86
2021/10/16 02:02:50;;;;;;;3.17;2.30;;;;;;;;;;10420482;28;20282;-86
2021/10/16 02:07:50;;;;;;;3.40;2.07;;;;;;;;;;10421202;28;20375;-87
2021/10/16 02:12:51;;;;;;;3.65;2.05;;;;;;;;;;10421155;28;20053;-88
2021/10/16 02:17:51;;;;;;;3.83;2.23;;;;;;;;;;10420946;28;20037;-87
2021/10/16 02:22:51;;;;;;;4.30;2.20;;;;;;;;;;10419615;28;20068;-84
2021/10/16 02:27:52;;;;;;;3.70;2.20;;;;;;;;;;10419369;28;20125;-85
2021/10/16 02:32:52;;;;;;;9.80;2.13;;;;;;;;;;10419046;28;20028;-88
2021/10/16 02:37:52;;;;;;;3.43;1.90;;;;;;;;;;10420207;28;20259;-89
2021/10/16 02:42:53;;;;;;;3.63;2.10;;;;;;;;;;10420107;28;20302;-88
2021/10/16 02:47:53;;;;;;;5.80;2.30;;;;;;;;;;10420095;28;20033;-85
2021/10/16 02:52:53;;;;;;;2.33;2.13;;;;;;;;;;10418913;28;20116;-86
2021/10/16 02:57:54;;;;;;;2.90;1.97;;;;;;;;;;10418596;28;20088;-85
2021/10/16 03:02:54;;;;;;;2.97;2.20;;;;;;;;;;10418656;28;20034;-86
2021/10/16 03:07:54;;;;;;;3.57;2.37;;;;;;;;;;10419207;28;20064;-85
2021/10/16 03:12:55;;;;;;;3.43;2.07;;;;;;;;;;10418058;28;20476;-86
2021/10/16 03:17:55;;;;;;;4.57;1.93;;;;;;;;;;10416689;28;20472;-85
2021/10/16 03:22:55;;;;;;;2.23;1.90;;;;;;;;;;10416732;28;20073;-87
2021/10/16 03:27:56;;;;;;;6.13;2.30;;;;;;;;;;10417443;28;20026;-87
2021/10/16 03:32:56;;;;;;;2.67;2.27;;;;;;;;;;10418288;28;20068;-86
2021/10/16 03:37:56;;;;;;;2.80;2.20;;;;;;;;;;10419426;28;20041;-87
2021/10/16 03:42:57;;;;;;;4.73;2.30;;;;;;;;;;10418139;28;20321;-87
2021/10/16 03:47:57;;;;;;;2.13;1.93;;;;;;;;;;10420013;28;20262;-87
2021/10/16 03:52:58;;;;;;;2.57;1.87;;;;;;;;;;10419079;28;20032;-87
2021/10/16 03:57:58;;;;;;;2.70;2.05;;;;;;;;;;10419890;28;20025;-89
2021/10/16 04:03:04;;;;;;;9.43;1.90;;;;;;;;;;10418429;28;20111;-88
2021/10/16 04:08:05;;;;;;;2.92;1.85;;;;;;;;;;10418903;28;20030;-89
2021/10/16 04:13:06;;;;;;;3.72;2.25;;;;;;;;;;10419067;28;20107;-90
2021/10/16 04:18:06;;;;;;;15.87;2.43;;;;;;;;;;10418537;28;20455;-89
2021/10/16 04:23:07;;;;;;;2.40;2.00;;;;;;;;;;10417854;28;20274;-89
2021/10/16 04:28:07;;;;;;;4.30;1.70;;;;;;;;;;10421555;28;20073;-88
2021/10/16 04:33:07;;;;;;;1.77;1.67;;;;;;;;;;10424806;28;20029;-90
2021/10/16 04:38:08;;;;;;;2.30;2.00;;;;;;;;;;10426033;28;20525;-91
2021/10/16 04:43:09;;;;;;;7.63;1.90;;;;;;;;;;10425463;28;20081;-89
2021/10/16 04:48:10;;;;;;;2.70;1.83;;;;;;;;;;10424108;28;20025;-89
2021/10/16 04:53:10;;;;;;;11.57;2.00;;;;;;;;;;10425619;28;20406;-90
2021/10/16 04:58:10;;;;;;;2.90;1.90;;;;;;;;;;10424818;28;20460;-88
2021/10/16 05:03:11;;;;;;;1.83;1.63;;;;;;;;;;10424400;28;20386;-90
2021/10/16 05:08:11;;;;;;;2.15;1.77;;;;;;;;;;10424040;28;20083;-92
2021/10/16 05:13:12;;;;;;;5.82;2.00;;;;;;;;;;10423533;28;20489;-87
2021/10/16 05:18:12;;;;;;;4.40;2.53;;;;;;;;;;10423010;28;20090;-87
2021/10/16 05:23:12;;;;;;;5.95;2.65;;;;;;;;;;10421717;28;20033;-87
2021/10/16 05:28:13;;;;;;;3.43;1.87;;;;;;;;;;10423336;28;20040;-90
2021/10/16 05:33:13;;;;;;;4.18;2.75;;;;;;;;;;10423556;28;20109;-90
2021/10/16 05:38:14;;;;;;;13.77;2.70;;;;;;;;;;10422411;28;20079;-86
2021/10/16 05:43:15;;;;;;;5.57;2.57;;;;;;;;;;10421119;28;20052;-87
2021/10/16 05:48:15;;;;;;;3.97;2.35;;;;;;;;;;10423316;28;20620;-87
2021/10/16 05:53:16;;;;;;;4.03;1.70;;;;;;;;;;10420851;28;20120;-85
2021/10/16 05:58:16;;;;;;;7.53;1.80;;;;;;;;;;10403696;28;20040;-87
2021/10/16 06:03:16;;;;;;;4.40;1.98;;;;;;;;;;10419879;28;20041;-88
2021/10/16 06:08:17;;;;;;;8.37;1.70;;;;;;;;;;10421052;28;20033;-87
2021/10/16 06:13:17;;;;;;;4.03;1.80;;;;;;;;;;10415187;28;20033;-85
2021/10/16 06:18:18;;;;;;;4.20;1.83;;;;;;;;;;10415247;28;20033;-87
2021/10/16 06:23:18;;;;;;;5.25;1.90;;;;;;;;;;10411600;28;20017;-85
2021/10/16 06:28:18;;;;;;;3.13;1.40;;;;;;;;;;10409476;28;20026;-85
2021/10/16 06:33:19;;;;;;;8.37;1.80;;;;;;;;;;10410465;28;20255;-85
2021/10/16 06:38:20;;;;;;;4.07;2.05;;;;;;;;;;10415509;28;20597;-86
2021/10/16 06:43:21;;;;;;;5.68;1.80;;;;;;;;;;10415268;28;20445;-86
2021/10/16 06:48:21;;;;;;;5.77;2.27;;;;;;;;;;10409137;28;20025;-82
2021/10/16 06:53:21;;;;;;;2.67;1.80;;;;;;;;;;10409849;28;20065;-83
2021/10/16 06:58:22;;;;;;;5.20;1.70;;;;;;;;;;10412090;28;20048;-87
2021/10/16 07:03:22;;;;;;;12.00;2.10;;;;;;;;;;10412055;28;20368;-85
2021/10/16 07:08:29;;;;;;;7.60;1.87;;;;;;;;;;10414644;28;20029;-87
2021/10/16 07:13:29;;;;;;;9.30;2.17;;;;;;;;;;10413716;28;20282;-88
2021/10/16 07:18:30;;;;;;;16.33;2.33;;;;;;;;;;10407411;28;20112;-94
2021/10/16 07:23:30;;;;;;;15.93;2.67;;;;;;;;;;10404489;28;20105;-94
2021/10/16 07:28:31;;;;;;;13.50;3.17;;;;;;;;;;10411419;28;20156;-95
2021/10/16 07:33:31;;;;;;;16.10;3.47;;;;;;;;;;10421106;28;20270;-93
2021/10/16 07:38:31;;;;;;;7.33;3.80;;;;;;;;;;10428749;28;20040;-96
2021/10/16 07:43:32;;;;;;;7.57;3.88;;;;;;;;;;10472823;23;20049;-86
2021/10/16 07:48:32;;;;;;;10.48;3.75;;;;;;;;;;10453128;28;20037;-88
2021/10/16 07:53:33;;;;;;;16.83;4.40;;;;;;;;;;10450060;28;20115;-89
2021/10/16 07:58:34;;;;;;;10.60;4.40;;;;;;;;;;10447897;28;20724;-86
2021/10/16 08:03:36;;;;;;;9.82;3.65;;;;;;;;;;10459291;28;20459;-87
2021/10/16 08:08:36;;;;;;;7.88;3.78;;;;;;;;;;10411581;28;20068;-82
2021/10/16 08:13:40;;;;;;;12.15;3.65;;;;;;;;;;10464114;28;20060;-93
2021/10/16 08:18:40;;;;;;;9.75;3.25;;;;;;;;;;10450890;28;20029;-83
2021/10/16 08:23:41;;;;;;;29.53;4.27;;;;;;;;;;10462759;28;20450;-88
2021/10/16 08:28:48;;;;;;;14.35;3.85;;;;;;;;;;10462043;28;20025;-90
2021/10/16 08:33:49;;;;;;;14.20;4.65;;;;;;;;;;10445229;28;20094;-89
2021/10/16 08:39:33;;;;;;;12.18;3.20;;;;;;;;;;10416821;28;20455;-93
2021/10/16 08:44:34;;;;;;;17.77;3.88;;;;;;;;;;10350310;28;20052;-85
2021/10/16 08:49:37;;;;;;;18.33;4.55;;;;;;;;;;10374656;28;20057;-83
2021/10/16 08:54:41;;;;;;;8.43;3.67;;;;;;;;;;10359159;28;20205;-90
2021/10/16 09:00:26;;;;;;;16.08;3.50;;;;;;;;;;10360071;28;20439;-92
2021/10/16 09:05:26;;;;;;;10.20;4.00;;;;;;;;;;10376388;28;20037;-90
2021/10/16 09:10:27;;;;;;;15.37;3.57;;;;;;;;;;10358817;28;20030;-91
2021/10/16 09:15:27;;;;;;;12.57;4.33;;;;;;;;;;10367570;28;20104;-92
2021/10/16 09:20:38;;;;;;;14.98;3.80;;;;;;;;;;10406422;28;20456;-91
2021/10/16 09:25:38;;;;;;;16.52;4.05;;;;;;;;;;10406111;28;20031;-91
2021/10/16 09:30:43;;;;;;;16.80;4.30;;;;;;;;;;10350530;28;300365;-92
2021/10/16 09:35:44;;;;;;;16.95;4.38;;;;;;;;;;10416178;28;20072;-91
2021/10/16 09:40:44;;;;;;;16.80;4.00;;;;;;;;;;10396923;28;20115;-90
2021/10/16 09:45:46;;;;;;;11.43;3.95;;;;;;;;;;10463541;28;20111;-95
2021/10/16 09:51:00;;;;;;;24.73;4.50;;;;;;;;;;10462951;28;20029;-94
2021/10/16 09:56:01;;;;;;;10.02;3.50;;;;;;;;;;10434487;28;20477;-84
2021/10/16 10:01:02;;;;;;;15.27;3.55;;;;;;;;;;10442885;28;20056;-85
2021/10/16 10:06:02;;;;;;;10.25;3.45;;;;;;;;;;10441669;28;20091;-88
2021/10/16 10:11:03;;;;;;;14.13;4.13;;;;;;;;;;10441625;28;20429;-90
2021/10/16 10:16:03;;;;;;;16.85;3.40;;;;;;;;;;10421242;28;20463;-89
2021/10/16 10:21:04;;;;;;;11.20;3.30;;;;;;;;;;10415726;28;20188;-89
2021/10/16 10:32:03;;;;;;;13.23;3.85;;;;;;;;;;10456931;28;20029;-93
2021/10/16 10:37:52;;;;;;;15.15;3.33;;;;;;;;;;10429930;28;20494;-94
2021/10/16 11:06:22;;;;;;;13.52;3.30;;;;;;;;;;10245587;28;20425;-90
2021/10/16 11:11:23;;;;;;;6.43;2.92;;;;;;;;;;10250103;29;20505;-91
2021/10/16 11:16:23;;;;;;;8.52;3.63;;;;;;;;;;10250468;29;20046;-90
2021/10/16 11:21:24;;;;;;;7.97;3.28;;;;;;;;;;10238719;29;20070;-91
2021/10/16 11:26:25;;;;;;;10.38;2.95;;;;;;;;;;10236382;29;20031;-91
2021/10/16 11:31:25;;;;;;;7.10;2.72;;;;;;;;;;10238378;29;20066;-86
2021/10/16 11:36:28;;;;;;;10.93;3.47;;;;;;;;;;10240369;28;20495;-95
2021/10/16 11:41:43;;;;;;;8.70;3.15;;;;;;;;;;10211593;28;20039;-93
2021/10/16 11:53:45;;;;;;;;;;;;;;;;;;;;;
2021/10/16 11:58:58;;;;;;;9.75;3.30;;;;;;;;;;10050750;29;20042;-95
2021/10/16 12:03:59;;;;;;;9.98;2.58;;;;;;;;;;10021669;29;20462;-86
2021/10/16 12:09:01;;;;;;;8.05;3.08;;;;;;;;;;10028236;29;20038;-85
2021/10/16 12:14:06;;;;;;;9.68;2.97;;;;;;;;;;10028526;29;20095;-87
2021/10/16 12:19:14;;;;;;;10.68;2.97;;;;;;;;;;9997952;29;20129;-87
2021/10/16 12:24:19;;;;;;;8.37;3.17;;;;;;;;;;10014246;29;20081;-89
2021/10/16 12:29:30;;;;;;;10.65;3.05;;;;;;;;;;10042840;29;20041;-83
2021/10/16 12:34:32;;;;;;;8.85;2.63;;;;;;;;;;10156293;29;20035;-84
2021/10/16 12:39:44;;;;;;;8.73;2.83;;;;;;;;;;10249121;29;20102;-90
2021/10/16 12:44:49;;;;;;;9.45;2.75;;;;;;;;;;10244814;29;20101;-85
2021/10/16 12:49:54;;;;;;;6.10;2.60;;;;;;;;;;10235634;29;20039;-88
2021/10/16 13:31:59;;;;;;;8.52;2.92;;;;;;;;;;10233395;28;20369;-88
2021/10/16 13:43:18;;;;;;;5.45;2.05;;;;;;;;;;10191289;29;20285;-88
2021/10/16 14:00:43;;;;;;;6.93;2.40;;;;;;;;;;10229269;28;20039;-87
2021/10/16 14:05:45;;;;;;;5.93;2.70;;;;;;;;;;10229275;29;20036;-87
2021/10/16 14:10:51;;;;;;;7.75;2.38;;;;;;;;;;10230111;29;20054;-87
2021/10/16 14:16:36;;;;;;;7.15;2.30;;;;;;;;;;10222541;29;20483;-87
2021/10/16 14:28:37;;;;;;;4.82;2.13;;;;;;;;;;10222350;29;20039;-88
2021/10/16 14:40:21;;;;;;;11.13;2.63;;;;;;;;;;10058965;29;20434;-91
2021/10/16 14:45:31;;;;;;;4.93;2.38;;;;;;;;;;10039873;29;20081;-91
2021/10/16 14:50:31;;;;;;;4.78;2.15;;;;;;;;;;10039580;29;20052;-91
2021/10/16 14:55:32;;;;;;;5.95;2.28;;;;;;;;;;10038019;29;20527;-91
2021/10/16 15:00:35;;;;;;;6.25;2.10;;;;;;;;;;10053194;29;20047;-92
2021/10/16 15:05:38;;;;;;;9.65;1.80;;;;;;;;;;10037825;29;20524;-92
2021/10/16 15:10:39;;;;;;;6.50;2.08;;;;;;;;;;10061181;29;20371;-91
2021/10/16 15:15:42;;;;;;;5.10;2.30;;;;;;;;;;10252447;28;20043;-92
2021/10/16 15:20:43;;;;;;;2.70;1.80;;;;;;;;;;10238613;29;20484;-91
2021/10/16 15:25:44;;;;;;;3.78;1.90;;;;;;;;;;10237888;29;20039;-90
2021/10/16 15:30:45;;;;;;;2.88;1.85;;;;;;;;;;10252344;29;20131;-91
2021/10/16 15:35:46;;;;;;;9.30;2.15;;;;;;;;;;10253512;28;20142;-91
2021/10/16 15:40:46;;;;;;;7.57;2.38;;;;;;;;;;10237091;29;20082;-91
2021/10/16 15:45:47;;;;;;;5.90;2.20;;;;;;;;;;10240895;29;20442;-91
2021/10/16 15:50:48;;;;;;;4.88;2.17;;;;;;;;;;10241141;29;20039;-91
2021/10/16 15:55:49;;;;;;;4.65;1.92;;;;;;;;;;10252518;28;20050;-91
2021/10/16 16:00:49;;;;;;;3.38;2.05;;;;;;;;;;10242239;29;20035;-92
2021/10/16 16:05:50;;;;;;;3.22;1.77;;;;;;;;;;10242269;29;20067;-91
2021/10/16 16:10:54;;;;;;;3.42;1.73;;;;;;;;;;10231027;29;20083;-92
2021/10/16 16:15:56;;;;;;;11.27;2.50;;;;;;;;;;10235282;29;20051;-90
2021/10/16 16:20:57;;;;;;;3.65;2.00;;;;;;;;;;10228666;29;20051;-91
2021/10/16 16:26:08;;;;;;;;;;;;;;;;;;;;;
2021/10/16 16:31:14;;;;;;;3.05;1.80;;;;;;;;;;10244229;29;20474;-92
2021/10/16 16:36:15;;;;;;;5.22;2.25;;;;;;;;;;10248487;29;20058;-91
2021/10/16 16:41:18;;;;;;;3.70;1.90;;;;;;;;;;10233831;29;20132;-91
2021/10/16 16:46:19;;;;;;;2.55;1.70;;;;;;;;;;10224872;29;20043;-92
2021/10/16 16:51:20;;;;;;;4.32;1.63;;;;;;;;;;10240035;29;20039;-89
2021/10/16 16:56:22;;;;;;;9.50;2.38;;;;;;;;;;10231101;29;20035;-87
2021/10/16 17:01:22;;;;;;;14.00;3.55;;;;;;;;;;10254714;29;20563;-86
2021/10/16 17:06:22;;;;;;;16.93;4.37;;;;;;;;;;10256598;29;20183;-87
2021/10/16 17:11:23;;;;;;;25.30;4.47;;;;;;;;;;10239431;29;20046;-89
2021/10/16 17:16:25;;;;;;;17.13;4.40;;;;;;;;;;10241291;29;20035;-86
2021/10/16 17:21:26;;;;;;;11.13;3.58;;;;;;;;;;10257733;28;20046;-88
2021/10/16 17:26:26;;;;;;;25.27;5.57;;;;;;;;;;10243851;29;20031;-88
2021/10/16 17:31:28;;;;;;;23.40;5.53;;;;;;;;;;10261022;28;20035;-88
2021/10/16 17:36:31;;;;;;;20.65;4.07;;;;;;;;;;10200438;29;20119;-90
2021/10/16 17:41:32;;;;;;;23.10;4.65;;;;;;;;;;10177852;29;20040;-90
2021/10/16 17:46:32;;;;;;;15.25;4.22;;;;;;;;;;10198584;29;20047;-90
2021/10/16 17:51:33;;;;;;;16.35;3.65;;;;;;;;;;10189868;29;20039;-90
2021/10/16 17:56:33;;;;;;;14.02;4.30;;;;;;;;;;10172137;29;20050;-90
2021/10/16 18:01:35;;;;;;;14.25;3.58;;;;;;;;;;10183464;29;20050;-90
2021/10/16 18:06:35;;;;;;;11.60;4.43;;;;;;;;;;10192812;29;20074;-90
2021/10/16 18:11:38;;;;;;;15.93;4.00;;;;;;;;;;10174478;29;20483;-90
2021/10/16 18:16:38;;;;;;;13.15;3.90;;;;;;;;;;10165108;29;20044;-92
2021/10/16 18:21:39;;;;;;;17.63;4.28;;;;;;;;;;10181643;29;20043;-93
2021/10/16 18:26:39;;;;;;;18.23;4.05;;;;;;;;;;10200534;29;20044;-93
2021/10/16 18:31:58;;;;;;;12.85;3.55;;;;;;;;;;10159389;29;20044;-94
2021/10/16 18:53:09;;;;;;;11.55;3.28;;;;;;;;;;11947778;23;20067;-95
2021/10/16 18:58:29;;;;;;;10.55;4.30;;;;;;;;;;10199885;29;20040;-94
2021/10/16 19:03:30;;;;;;;18.58;4.63;;;;;;;;;;10183615;29;20035;-92
2021/10/16 19:08:33;;;;;;;11.40;3.90;;;;;;;;;;10190970;29;20394;-92
2021/10/16 19:13:33;;;;;;;11.85;3.90;;;;;;;;;;10198358;29;20070;-93
2021/10/16 19:19:46;;;;;;;12.68;3.97;;;;;;;;;;10197884;29;20043;-93
2021/10/16 19:25:11;;;;;;;21.15;4.65;;;;;;;;;;10189063;29;20039;-93
2021/10/16 19:30:12;;;;;;;10.25;4.13;;;;;;;;;;10199928;29;20040;-93
2021/10/16 19:35:12;;;;;;;10.68;4.35;;;;;;;;;;10197070;29;20035;-94
2021/10/16 19:40:19;;;;;;;14.45;4.40;;;;;;;;;;10197764;29;20490;-91
2021/10/16 19:45:19;;;;;;;13.27;4.70;;;;;;;;;;10237483;23;20079;-85
2021/10/16 19:50:20;;;;;;;10.20;3.88;;;;;;;;;;10251601;28;20122;-85
2021/10/16 19:55:21;;;;;;;18.50;4.85;;;;;;;;;;10250252;29;20109;-83
2021/10/16 20:00:21;;;;;;;14.38;4.20;;;;;;;;;;10255135;28;20106;-83
2021/10/16 20:05:21;;;;;;;20.03;5.50;;;;;;;;;;10254825;29;20187;-83
2021/10/16 20:10:22;;;;;;;21.37;5.07;;;;;;;;;;10253861;29;20474;-83
2021/10/16 20:15:22;;;;;;;20.80;5.20;;;;;;;;;;10252649;28;20050;-81
2021/10/16 20:20:23;;;;;;;16.20;5.63;;;;;;;;;;10249630;29;20046;-83
2021/10/16 20:25:23;;;;;;;10.60;4.53;;;;;;;;;;10238263;29;20040;-82
2021/10/16 20:30:23;;;;;;;13.10;4.47;;;;;;;;;;10236807;29;20031;-84
2021/10/16 20:35:24;;;;;;;15.37;5.13;;;;;;;;;;10255168;29;20038;-82
2021/10/16 20:40:24;;;;;;;13.27;5.03;;;;;;;;;;10242659;28;20328;-83
2021/10/16 20:45:25;;;;;;;19.10;5.15;;;;;;;;;;10256507;29;20043;-81
2021/10/16 20:50:25;;;;;;;19.23;5.03;;;;;;;;;;10256877;29;20039;-80
2021/10/16 20:55:26;;;;;;;21.73;5.47;;;;;;;;;;10259014;29;20141;-81
2021/10/16 21:00:26;;;;;;;18.20;5.40;;;;;;;;;;10259233;29;20474;-80
2021/10/16 21:05:26;;;;;;;23.10;5.63;;;;;;;;;;10256932;29;20285;-80
2021/10/16 21:10:27;;;;;;;16.10;5.37;;;;;;;;;;10254765;28;20281;-81
2021/10/16 21:15:27;;;;;;;17.63;4.90;;;;;;;;;;10253176;29;20036;-81
2021/10/16 21:20:28;;;;;;;16.00;5.77;;;;;;;;;;10245283;29;20538;-81
2021/10/16 21:25:28;;;;;;;25.85;5.22;;;;;;;;;;10243517;29;20046;-81
2021/10/16 21:30:28;;;;;;;19.48;5.07;;;;;;;;;;10256472;29;20047;-81
2021/10/16 21:35:39;;;;;;;20.17;4.93;;;;;;;;;;10257279;29;20478;-81
2021/10/16 21:40:44;;;;;;;14.88;5.18;;;;;;;;;;10249599;29;20498;-82
2021/10/16 21:45:45;;;;;;;12.45;4.28;;;;;;;;;;10253032;28;20134;-83
2021/10/16 21:50:50;;;;;;;12.60;4.55;;;;;;;;;;10243190;28;20094;-83
2021/10/16 21:55:51;;;;;;;17.05;5.25;;;;;;;;;;10241941;29;20046;-82
2021/10/16 22:00:51;;;;;;;12.52;4.70;;;;;;;;;;10259942;28;20130;-83
2021/10/16 22:05:52;;;;;;;14.48;4.82;;;;;;;;;;10257343;28;20053;-82
2021/10/16 22:10:52;;;;;;;8.32;4.18;;;;;;;;;;10247120;29;20042;-86
